createdAt,value
2022-09-25T00:00:50.771Z,100807.09
2022-09-25T00:03:18.590Z,100814.44
2022-09-25T00:05:46.167Z,100814.72
2022-09-25T00:08:13.810Z,100814.75
2022-09-25T00:10:42.437Z,100818.03
2022-09-25T00:13:10.087Z,100817.13
2022-09-25T00:15:37.636Z,100820.69
2022-09-25T00:18:07.466Z,100822.84
2022-09-25T00:20:34.039Z,100817.69
2022-09-25T00:23:02.331Z,100820.41
2022-09-25T00:25:28.808Z,100818.53
2022-09-25T00:27:55.748Z,100816.38
2022-09-25T00:30:22.419Z,100813.34
2022-09-25T00:32:48.950Z,100813.06
2022-09-25T00:35:15.568Z,100813.59
2022-09-25T00:37:42.009Z,100815.03
2022-09-25T00:40:09.567Z,100810.63
2022-09-25T00:42:36.647Z,100809.00
2022-09-25T00:45:18.485Z,100803.84
2022-09-25T00:47:53.343Z,100813.69
2022-09-25T00:50:35.683Z,100807.72
2022-09-25T00:53:09.297Z,100814.75
2022-09-25T00:55:37.759Z,100811.50
2022-09-25T00:58:06.155Z,100807.16
2022-09-25T01:00:34.271Z,100808.97
2022-09-25T01:03:05.127Z,100818.53
2022-09-25T01:05:35.645Z,100811.47
2022-09-25T01:08:05.900Z,100821.53
2022-09-25T01:10:33.787Z,100816.09
2022-09-25T01:13:01.411Z,100820.19
2022-09-25T01:15:34.028Z,100820.47
2022-09-25T01:18:12.936Z,100820.72
2022-09-25T01:21:17.464Z,100821.81
2022-09-25T01:24:24.220Z,100826.19
2022-09-25T01:27:02.760Z,100814.19
2022-09-25T01:29:47.454Z,100821.81
2022-09-25T01:32:32.575Z,100818.28
2022-09-25T01:35:09.336Z,100819.13
2022-09-25T01:37:45.572Z,100818.56
2022-09-25T01:40:21.331Z,100825.06
2022-09-25T01:42:56.216Z,100824.00
2022-09-25T01:45:36.846Z,100823.19
2022-09-25T01:48:07.641Z,100826.50
2022-09-25T01:50:50.859Z,100829.44
2022-09-25T01:53:23.907Z,100829.69
2022-09-25T01:55:58.317Z,100831.09
2022-09-25T01:58:34.107Z,100820.22
2022-09-25T02:01:14.024Z,100829.75
2022-09-25T02:03:50.681Z,100822.94
2022-09-25T02:06:20.873Z,100820.22
2022-09-25T02:08:54.505Z,100823.75
2022-09-25T02:11:23.239Z,100820.78
2022-09-25T02:13:58.768Z,100828.63
2022-09-25T02:16:35.497Z,100828.34
2022-09-25T02:19:23.038Z,100824.56
2022-09-25T02:22:05.038Z,100831.34
2022-09-25T02:24:43.247Z,100825.34
2022-09-25T02:27:09.751Z,100827.50
2022-09-25T02:29:36.764Z,100822.88
2022-09-25T02:32:07.716Z,100825.06
2022-09-25T02:34:34.563Z,100823.38
2022-09-25T02:37:02.091Z,100830.22
2022-09-25T02:39:31.072Z,100827.78
2022-09-25T02:42:25.726Z,100816.88
2022-09-25T02:45:20.053Z,100828.34
2022-09-25T02:48:24.377Z,100827.53
2022-09-25T02:51:07.859Z,100830.47
2022-09-25T02:53:51.409Z,100829.69
2022-09-25T02:56:24.555Z,100829.13
2022-09-25T02:58:54.855Z,100834.31
2022-09-25T03:01:25.034Z,100830.75
2022-09-25T03:03:55.277Z,100831.84
2022-09-25T03:06:25.472Z,100825.88
2022-09-25T03:08:56.740Z,100826.94
2022-09-25T03:11:26.799Z,100834.34
2022-09-25T03:14:02.489Z,100834.34
2022-09-25T03:16:56.450Z,100835.38
2022-09-25T03:19:26.748Z,100828.03
2022-09-25T03:21:54.105Z,100831.31
2022-09-25T03:24:21.240Z,100828.28
2022-09-25T03:26:47.845Z,100823.97
2022-09-25T03:29:17.224Z,100820.16
2022-09-25T03:31:45.428Z,100822.59
2022-09-25T03:34:13.396Z,100813.59
2022-09-25T03:36:40.638Z,100819.56
2022-09-25T03:39:07.135Z,100825.31
2022-09-25T03:41:35.150Z,100823.13
2022-09-25T03:44:04.250Z,100825.84
2022-09-25T03:46:34.178Z,100825.59
2022-09-25T03:49:01.839Z,100826.66
2022-09-25T03:51:31.237Z,100825.91
2022-09-25T03:53:58.102Z,100826.94
2022-09-25T03:56:27.113Z,100820.69
2022-09-25T03:58:56.684Z,100824.78
2022-09-25T04:01:24.509Z,100818.00
2022-09-25T04:03:51.430Z,100815.28
2022-09-25T04:06:21.004Z,100821.78
2022-09-25T04:08:48.316Z,100816.69
2022-09-25T04:11:16.716Z,100819.94
2022-09-25T04:13:44.680Z,100812.31
2022-09-25T04:16:13.311Z,100809.34
2022-09-25T04:18:41.725Z,100813.19
2022-09-25T04:21:10.648Z,100822.69
2022-09-25T04:23:37.923Z,100813.19
2022-09-25T04:26:05.238Z,100805.03
2022-09-25T04:28:33.561Z,100807.44
2022-09-25T04:31:01.217Z,100811.00
2022-09-25T04:33:48.539Z,100810.19
2022-09-25T04:36:16.795Z,100810.22
2022-09-25T04:38:43.905Z,100812.09
2022-09-25T04:41:10.489Z,100815.69
2022-09-25T04:43:37.140Z,100812.69
2022-09-25T04:46:08.895Z,100814.34
2022-09-25T04:48:36.022Z,100813.53
2022-09-25T04:51:04.831Z,100814.09
2022-09-25T04:53:35.316Z,100811.63
2022-09-25T04:56:12.266Z,100814.63
2022-09-25T04:58:45.550Z,100823.09
2022-09-25T05:01:12.064Z,100815.19
2022-09-25T05:03:38.606Z,100825.81
2022-09-25T05:06:05.371Z,100818.72
2022-09-25T05:08:32.641Z,100810.84
2022-09-25T05:10:59.223Z,100824.47
2022-09-25T05:13:25.692Z,100813.34
2022-09-25T05:15:52.235Z,100814.13
2022-09-25T05:18:21.292Z,100820.09
2022-09-25T05:20:48.677Z,100824.19
2022-09-25T05:23:16.234Z,100822.03
2022-09-25T05:25:43.133Z,100812.78
2022-09-25T05:28:10.130Z,100814.94
2022-09-25T05:30:38.809Z,100817.94
2022-09-25T05:33:05.749Z,100812.78
2022-09-25T05:35:33.761Z,100812.50
2022-09-25T05:38:00.693Z,100820.13
2022-09-25T05:40:28.446Z,100813.63
2022-09-25T05:42:55.333Z,100823.41
2022-09-25T05:45:23.241Z,100811.72
2022-09-25T05:47:59.051Z,100808.47
2022-09-25T05:50:26.086Z,100822.06
2022-09-25T05:53:00.575Z,100817.16
2022-09-25T05:55:28.304Z,100813.34
2022-09-25T05:58:00.215Z,100807.63
2022-09-25T06:00:28.221Z,100810.06
2022-09-25T06:02:54.781Z,100809.53
2022-09-25T06:05:21.294Z,100812.78
2022-09-25T06:07:52.789Z,100809.00
2022-09-25T06:10:19.424Z,100815.25
2022-09-25T06:12:45.866Z,100814.16
2022-09-25T06:15:12.232Z,100807.09
2022-09-25T06:17:38.745Z,100810.66
2022-09-25T06:20:05.897Z,100811.19
2022-09-25T06:22:32.725Z,100810.91
2022-09-25T06:24:59.179Z,100815.81
2022-09-25T06:27:25.641Z,100811.44
2022-09-25T06:29:52.172Z,100813.34
2022-09-25T06:32:18.607Z,100818.22
2022-09-25T06:34:45.045Z,100809.53
2022-09-25T06:37:11.507Z,100813.34
2022-09-25T06:39:37.999Z,100814.41
2022-09-25T06:42:04.749Z,100815.50
2022-09-25T06:44:31.831Z,100820.66
2022-09-25T06:46:59.751Z,100816.84
2022-09-25T06:49:26.339Z,100821.19
2022-09-25T06:51:52.786Z,100819.81
2022-09-25T06:54:19.260Z,100828.50
2022-09-25T06:56:49.985Z,100823.88
2022-09-25T06:59:16.875Z,100819.50
2022-09-25T07:01:43.376Z,100820.53
2022-09-25T07:04:10.174Z,100828.38
2022-09-25T07:06:37.459Z,100824.06
2022-09-25T07:09:04.487Z,100825.38
2022-09-25T07:11:34.172Z,100821.53
2022-09-25T07:14:01.397Z,100823.44
2022-09-25T07:16:30.537Z,100821.00
2022-09-25T07:19:03.539Z,100824.78
2022-09-25T07:21:32.546Z,100819.28
2022-09-25T07:23:59.251Z,100823.69
2022-09-25T07:26:30.793Z,100826.69
2022-09-25T07:29:06.617Z,100825.31
2022-09-25T07:31:37.784Z,100827.53
2022-09-25T07:34:09.127Z,100830.44
2022-09-25T07:36:38.478Z,100824.22
2022-09-25T07:39:05.624Z,100832.41
2022-09-25T07:41:33.080Z,100830.00
2022-09-25T07:44:18.019Z,100835.16
2022-09-25T07:46:46.581Z,100835.41
2022-09-25T07:49:13.600Z,100835.63
2022-09-25T07:51:43.327Z,100836.72
2022-09-25T07:54:09.788Z,100834.47
2022-09-25T07:56:38.091Z,100838.56
2022-09-25T07:59:04.670Z,100841.00
2022-09-25T08:01:32.421Z,100849.97
2022-09-25T08:03:59.425Z,100849.38
2022-09-25T08:06:25.855Z,100841.44
2022-09-25T08:08:52.322Z,100850.69
2022-09-25T08:11:18.835Z,100850.69
2022-09-25T08:13:46.127Z,100845.78
2022-09-25T08:16:16.000Z,100852.28
2022-09-25T08:18:46.137Z,100853.69
2022-09-25T08:21:14.563Z,100849.25
2022-09-25T08:23:47.437Z,100848.22
2022-09-25T08:26:14.696Z,100850.06
2022-09-25T08:28:41.879Z,100848.13
2022-09-25T08:31:08.798Z,100846.69
2022-09-25T08:33:36.011Z,100845.38
2022-09-25T08:36:05.594Z,100855.94
2022-09-25T08:38:34.512Z,100855.66
2022-09-25T08:41:04.001Z,100850.69
2022-09-25T08:43:34.056Z,100850.03
2022-09-25T08:46:24.775Z,100845.75
2022-09-25T08:49:02.297Z,100845.44
2022-09-25T08:51:32.102Z,100850.59
2022-09-25T08:54:00.953Z,100842.44
2022-09-25T08:56:29.615Z,100855.53
2022-09-25T08:59:25.852Z,100857.19
2022-09-25T09:01:57.661Z,100856.56
2022-09-25T09:04:39.151Z,100852.81
2022-09-25T09:07:26.221Z,100855.66
2022-09-25T09:10:07.259Z,100862.16
2022-09-25T09:12:45.168Z,100856.66
2022-09-25T09:15:34.660Z,100853.84
2022-09-25T09:18:14.228Z,100851.63
2022-09-25T09:20:52.293Z,100854.34
2022-09-25T09:23:21.679Z,100853.38
2022-09-25T09:26:02.026Z,100852.28
2022-09-25T09:28:34.653Z,100855.31
2022-09-25T09:31:21.161Z,100856.66
2022-09-25T09:33:56.036Z,100853.94
2022-09-25T09:36:28.300Z,100859.28
2022-09-25T09:39:13.503Z,100859.78
2022-09-25T09:41:51.496Z,100853.88
2022-09-25T09:44:30.897Z,100850.19
2022-09-25T09:47:39.312Z,100857.94
2022-09-25T09:50:11.758Z,100842.25
2022-09-25T09:52:42.350Z,100850.66
2022-09-25T09:55:39.113Z,100854.47
2022-09-25T09:58:19.111Z,100848.84
2022-09-25T10:00:48.383Z,100848.25
2022-09-25T10:03:28.530Z,100846.34
2022-09-25T10:05:59.165Z,100846.66
2022-09-25T10:08:25.696Z,100849.09
2022-09-25T10:10:54.367Z,100845.72
2022-09-25T10:13:34.026Z,100848.97
2022-09-25T10:16:12.753Z,100843.53
2022-09-25T10:18:46.568Z,100849.13
2022-09-25T10:21:15.143Z,100845.13
2022-09-25T10:23:48.285Z,100843.50
2022-09-25T10:26:37.215Z,100841.78
2022-09-25T10:29:10.294Z,100839.28
2022-09-25T10:31:40.881Z,100835.50
2022-09-25T10:34:13.657Z,100836.97
2022-09-25T10:36:42.776Z,100839.78
2022-09-25T10:39:43.612Z,100834.13
2022-09-25T10:42:36.087Z,100836.38
2022-09-25T10:45:30.885Z,100834.88
2022-09-25T10:48:27.007Z,100838.03
2022-09-25T10:51:07.546Z,100845.63
2022-09-25T10:53:34.713Z,100831.66
2022-09-25T10:56:36.123Z,100839.06
2022-09-25T10:59:09.281Z,100832.16
2022-09-25T11:01:41.430Z,100819.72
2022-09-25T11:04:24.637Z,100824.28
2022-09-25T11:07:01.756Z,100832.81
2022-09-25T11:09:32.979Z,100823.34
2022-09-25T11:12:15.080Z,100830.84
2022-09-25T11:14:55.243Z,100821.91
2022-09-25T11:17:42.684Z,100813.16
2022-09-25T11:20:22.674Z,100819.03
2022-09-25T11:23:01.119Z,100815.66
2022-09-25T11:25:40.413Z,100805.06
2022-09-25T11:28:44.589Z,100814.56
2022-09-25T11:31:28.495Z,100814.78
2022-09-25T11:34:08.221Z,100807.16
2022-09-25T11:36:48.147Z,100804.41
2022-09-25T11:39:46.279Z,100795.00
2022-09-25T11:42:31.133Z,100795.88
2022-09-25T11:45:08.719Z,100797.47
2022-09-25T11:47:54.017Z,100789.03
2022-09-25T11:50:26.025Z,100786.81
2022-09-25T11:53:21.093Z,100788.53
2022-09-25T11:55:50.501Z,100794.69
2022-09-25T11:58:26.547Z,100784.41
2022-09-25T12:01:09.468Z,100784.81
2022-09-25T12:03:57.135Z,100787.78
2022-09-25T12:06:48.939Z,100778.41
2022-09-25T12:09:34.300Z,100790.88
2022-09-25T12:12:03.520Z,100780.78
2022-09-25T12:14:39.143Z,100778.88
2022-09-25T12:17:43.716Z,100786.66
2022-09-25T12:20:18.448Z,100775.41
2022-09-25T12:23:15.839Z,100777.66
2022-09-25T12:26:03.120Z,100775.16
2022-09-25T12:29:04.069Z,100766.31
2022-09-25T12:31:58.650Z,100766.00
2022-09-25T12:34:43.552Z,100764.81
2022-09-25T12:37:40.104Z,100760.66
2022-09-25T12:40:34.634Z,100751.84
2022-09-25T12:43:11.255Z,100753.03
2022-09-25T12:45:43.877Z,100746.81
2022-09-25T12:48:27.202Z,100751.41
2022-09-25T12:51:16.407Z,100747.72
2022-09-25T12:53:58.374Z,100741.88
2022-09-25T12:56:27.783Z,100738.66
2022-09-25T12:59:20.140Z,100739.28
2022-09-25T13:02:13.737Z,100739.78
2022-09-25T13:04:55.131Z,100735.50
2022-09-25T13:07:44.009Z,100747.25
2022-09-25T13:10:23.808Z,100741.00
2022-09-25T13:12:52.728Z,100750.31
2022-09-25T13:15:24.104Z,100743.63
2022-09-25T13:17:51.078Z,100742.19
2022-09-25T13:20:26.494Z,100744.59
2022-09-25T13:22:58.790Z,100752.88
2022-09-25T13:25:26.169Z,100744.47
2022-09-25T13:27:54.158Z,100744.78
2022-09-25T13:30:23.690Z,100739.72
2022-09-25T13:32:55.939Z,100738.28
2022-09-25T13:35:23.789Z,100738.69
2022-09-25T13:37:53.588Z,100741.03
2022-09-25T13:40:42.012Z,100756.47
2022-09-25T13:43:21.332Z,100744.28
2022-09-25T13:45:49.203Z,100741.16
2022-09-25T13:48:37.091Z,100750.63
2022-09-25T13:51:21.906Z,100739.78
2022-09-25T13:54:03.647Z,100734.81
2022-09-25T13:56:42.328Z,100739.03
2022-09-25T13:59:17.624Z,100739.97
2022-09-25T14:01:45.777Z,100729.34
2022-09-25T14:04:15.025Z,100732.66
2022-09-25T14:06:44.573Z,100733.91
2022-09-25T14:09:14.004Z,100727.84
2022-09-25T14:11:49.720Z,100731.38
2022-09-25T14:14:30.262Z,100729.75
2022-09-25T14:16:59.182Z,100725.34
2022-09-25T14:19:36.417Z,100727.88
2022-09-25T14:22:05.911Z,100725.63
2022-09-25T14:24:33.168Z,100714.38
2022-09-25T14:27:04.220Z,100725.19
2022-09-25T14:29:38.411Z,100725.41
2022-09-25T14:32:08.040Z,100721.34
2022-09-25T14:34:43.482Z,100724.78
2022-09-25T14:37:51.328Z,100727.41
2022-09-25T14:40:23.338Z,100722.66
2022-09-25T14:43:07.112Z,100720.94
2022-09-25T14:46:11.996Z,100709.41
2022-09-25T14:48:57.548Z,100714.16
2022-09-25T14:51:31.220Z,100698.56
2022-09-25T14:54:03.090Z,100696.25
2022-09-25T14:56:33.271Z,100697.34
2022-09-25T14:59:06.791Z,100706.91
2022-09-25T15:01:34.187Z,100691.59
2022-09-25T15:04:06.205Z,100695.13
2022-09-25T15:06:36.568Z,100703.03
2022-09-25T15:09:27.221Z,100698.97
2022-09-25T15:11:54.784Z,100695.50
2022-09-25T15:14:21.901Z,100701.09
2022-09-25T15:17:08.484Z,100697.84
2022-09-25T15:19:40.055Z,100685.06
2022-09-25T15:22:22.320Z,100693.69
2022-09-25T15:24:58.782Z,100692.66
2022-09-25T15:27:26.959Z,100690.03
2022-09-25T15:29:54.956Z,100691.84
2022-09-25T15:32:26.784Z,100688.81
2022-09-25T15:35:15.905Z,100686.56
2022-09-25T15:37:42.355Z,100679.78
2022-09-25T15:40:28.598Z,100681.69
2022-09-25T15:42:55.691Z,100676.75
2022-09-25T15:45:37.444Z,100664.56
2022-09-25T15:48:33.267Z,100674.63
2022-09-25T15:51:15.596Z,100671.31
2022-09-25T15:53:51.134Z,100669.06
2022-09-25T15:56:24.101Z,100666.66
2022-09-25T15:58:53.348Z,100677.81
2022-09-25T16:01:43.237Z,100671.19
2022-09-25T16:04:39.087Z,100671.47
2022-09-25T16:07:24.156Z,100667.50
2022-09-25T16:09:52.912Z,100663.56
2022-09-25T16:12:27.325Z,100667.84
2022-09-25T16:14:55.441Z,100665.31
2022-09-25T16:17:32.814Z,100662.28
2022-09-25T16:20:02.498Z,100662.28
2022-09-25T16:22:37.915Z,100660.63
2022-09-25T16:25:15.645Z,100651.19
2022-09-25T16:27:44.995Z,100652.34
2022-09-25T16:30:22.300Z,100661.03
2022-09-25T16:32:52.301Z,100657.06
2022-09-25T16:36:04.508Z,100657.88
2022-09-25T16:38:28.822Z,100651.91
2022-09-25T16:41:21.488Z,100653.09
2022-09-25T16:44:15.916Z,100655.22
2022-09-25T16:46:55.007Z,100666.22
2022-09-25T16:49:21.574Z,100663.66
2022-09-25T16:51:50.061Z,100669.72
2022-09-25T16:54:19.005Z,100677.28
2022-09-25T16:56:48.113Z,100673.91
2022-09-25T16:59:19.231Z,100673.22
2022-09-25T17:01:47.044Z,100678.47
2022-09-25T17:04:15.647Z,100676.66
2022-09-25T17:06:45.798Z,100675.94
2022-09-25T17:09:14.159Z,100673.00
2022-09-25T17:11:44.446Z,100672.44
2022-09-25T17:14:29.326Z,100657.94
2022-09-25T17:16:57.248Z,100659.91
2022-09-25T17:19:24.271Z,100648.53
2022-09-25T17:21:53.021Z,100648.31
2022-09-25T17:24:23.680Z,100644.84
2022-09-25T17:26:51.911Z,100655.38
2022-09-25T17:29:19.306Z,100655.50
2022-09-25T17:31:45.949Z,100653.41
2022-09-25T17:34:28.457Z,100657.00
2022-09-25T17:36:55.332Z,100645.91
2022-09-25T17:39:21.749Z,100658.53
2022-09-25T17:41:48.167Z,100657.22
2022-09-25T17:44:22.318Z,100655.66
2022-09-25T17:46:50.733Z,100652.69
2022-09-25T17:49:17.780Z,100664.16
2022-09-25T17:51:44.726Z,100659.53
2022-09-25T17:54:13.279Z,100650.25
2022-09-25T17:56:40.419Z,100648.09
2022-09-25T17:59:08.541Z,100646.72
2022-09-25T18:01:39.074Z,100649.69
2022-09-25T18:04:24.512Z,100641.22
2022-09-25T18:06:51.947Z,100645.28
2022-09-25T18:09:18.520Z,100654.03
2022-09-25T18:11:45.007Z,100651.59
2022-09-25T18:14:13.176Z,100645.34
2022-09-25T18:16:41.500Z,100644.75
2022-09-25T18:19:34.192Z,100646.44
2022-09-25T18:22:20.579Z,100645.09
2022-09-25T18:24:52.320Z,100637.19
2022-09-25T18:27:19.213Z,100639.41
2022-09-25T18:29:47.312Z,100628.84
2022-09-25T18:32:14.205Z,100640.31
2022-09-25T18:34:41.608Z,100641.44
2022-09-25T18:37:08.155Z,100636.50
2022-09-25T18:39:35.038Z,100631.34
2022-09-25T18:42:04.633Z,100630.84
2022-09-25T18:44:39.834Z,100625.94
2022-09-25T18:47:08.132Z,100627.88
2022-09-25T18:49:36.334Z,100628.44
2022-09-25T18:52:03.644Z,100626.28
2022-09-25T18:54:30.083Z,100628.78
2022-09-25T18:56:58.447Z,100629.88
2022-09-25T18:59:26.469Z,100621.16
2022-09-25T19:01:54.417Z,100624.50
2022-09-25T19:04:21.555Z,100613.66
2022-09-25T19:06:48.701Z,100613.13
2022-09-25T19:09:16.889Z,100612.59
2022-09-25T19:11:44.431Z,100618.38
2022-09-25T19:14:12.864Z,100616.75
2022-09-25T19:16:39.351Z,100619.53
2022-09-25T19:19:05.859Z,100619.28
2022-09-25T19:21:33.166Z,100616.59
2022-09-25T19:23:59.665Z,100617.69
2022-09-25T19:26:26.113Z,100618.78
2022-09-25T19:28:53.558Z,100616.59
2022-09-25T19:31:23.050Z,100616.00
2022-09-25T19:33:49.621Z,100621.44
2022-09-25T19:36:20.348Z,100614.91
2022-09-25T19:38:47.517Z,100613.00
2022-09-25T19:41:21.781Z,100610.56
2022-09-25T19:43:48.560Z,100613.56
2022-09-25T19:46:17.478Z,100610.56
2022-09-25T19:48:44.844Z,100602.41
2022-09-25T19:51:11.780Z,100605.13
2022-09-25T19:53:40.712Z,100598.34
2022-09-25T19:56:08.857Z,100595.63
2022-09-25T19:58:38.342Z,100601.34
2022-09-25T20:01:12.046Z,100599.75
2022-09-25T20:03:41.907Z,100598.44
2022-09-25T20:06:09.565Z,100587.78
2022-09-25T20:08:37.256Z,100594.31
2022-09-25T20:11:21.549Z,100588.88
2022-09-25T20:13:50.783Z,100593.81
2022-09-25T20:16:19.956Z,100590.63
2022-09-25T20:19:09.214Z,100586.25
2022-09-25T20:21:37.904Z,100581.13
2022-09-25T20:24:07.103Z,100579.81
2022-09-25T20:26:36.573Z,100568.69
2022-09-25T20:29:14.561Z,100568.38
2022-09-25T20:31:43.210Z,100565.13
2022-09-25T20:34:17.373Z,100570.06
2022-09-25T20:36:44.388Z,100562.16
2022-09-25T20:39:10.992Z,100562.22
2022-09-25T20:41:38.308Z,100569.34
2022-09-25T20:44:06.379Z,100568.38
2022-09-25T20:46:34.806Z,100565.63
2022-09-25T20:49:04.132Z,100567.53
2022-09-25T20:51:35.214Z,100549.88
2022-09-25T20:54:06.225Z,100558.84
2022-09-25T20:56:36.404Z,100558.31
2022-09-25T20:59:04.780Z,100560.53
2022-09-25T21:01:36.874Z,100559.72
2022-09-25T21:04:08.326Z,100563.25
2022-09-25T21:06:37.878Z,100557.84
2022-09-25T21:09:29.672Z,100559.81
2022-09-25T21:11:56.738Z,100559.28
2022-09-25T21:14:25.730Z,100567.16
2022-09-25T21:16:53.065Z,100562.03
2022-09-25T21:19:21.050Z,100561.25
2022-09-25T21:21:48.357Z,100542.28
2022-09-25T21:24:16.545Z,100549.06
2022-09-25T21:26:43.539Z,100545.81
2022-09-25T21:29:11.855Z,100539.56
2022-09-25T21:31:42.718Z,100540.97
2022-09-25T21:34:14.904Z,100536.06
2022-09-25T21:36:41.924Z,100535.81
2022-09-25T21:39:09.305Z,100536.06
2022-09-25T21:41:36.475Z,100535.28
2022-09-25T21:44:06.735Z,100527.66
2022-09-25T21:46:34.925Z,100526.84
2022-09-25T21:49:08.069Z,100532.84
2022-09-25T21:51:42.586Z,100532.00
2022-09-25T21:54:10.860Z,100532.28
2022-09-25T21:56:38.015Z,100525.78
2022-09-25T21:59:08.779Z,100528.22
2022-09-25T22:01:37.553Z,100526.31
2022-09-25T22:04:11.796Z,100522.53
2022-09-25T22:06:40.617Z,100524.97
2022-09-25T22:09:13.599Z,100522.81
2022-09-25T22:11:40.612Z,100521.69
2022-09-25T22:14:10.880Z,100525.50
2022-09-25T22:16:42.523Z,100514.09
2022-09-25T22:19:18.542Z,100525.53
2022-09-25T22:21:47.022Z,100525.53
2022-09-25T22:24:14.085Z,100517.94
2022-09-25T22:26:42.876Z,100529.84
2022-09-25T22:29:10.275Z,100521.72
2022-09-25T22:31:44.060Z,100522.50
2022-09-25T22:34:14.897Z,100521.97
2022-09-25T22:36:41.479Z,100514.66
2022-09-25T22:39:07.995Z,100529.84
2022-09-25T22:41:38.097Z,100516.81
2022-09-25T22:44:08.067Z,100515.19
2022-09-25T22:46:37.850Z,100511.94
2022-09-25T22:49:04.877Z,100513.03
2022-09-25T22:51:31.730Z,100517.91
2022-09-25T22:53:58.214Z,100501.09
2022-09-25T22:56:27.647Z,100509.50
2022-09-25T22:58:59.080Z,100510.88
2022-09-25T23:01:33.740Z,100513.03
2022-09-25T23:04:03.926Z,100514.09
2022-09-25T23:06:33.039Z,100506.50
2022-09-25T23:09:03.057Z,100508.16
2022-09-25T23:11:30.257Z,100501.09
2022-09-25T23:13:59.545Z,100495.94
2022-09-25T23:16:26.784Z,100491.88
2022-09-25T23:18:55.616Z,100487.25
2022-09-25T23:21:22.549Z,100485.38
2022-09-25T23:23:49.004Z,100476.69
2022-09-25T23:26:15.429Z,100477.22
2022-09-25T23:28:41.870Z,100474.81
2022-09-25T23:31:13.724Z,100468.00
2022-09-25T23:33:41.378Z,100456.63
2022-09-25T23:36:13.531Z,100450.66
2022-09-25T23:38:40.147Z,100451.75
2022-09-25T23:41:17.046Z,100448.47
2022-09-25T23:43:44.861Z,100451.19
2022-09-25T23:46:12.282Z,100441.69
2022-09-25T23:48:39.643Z,100442.53
2022-09-25T23:51:06.709Z,100441.44
2022-09-25T23:53:34.240Z,100430.84
2022-09-25T23:56:07.763Z,100432.22
2022-09-25T23:58:35.291Z,100430.56
